Time;durP1;ratioP1;P1;durP2;ratioP2;P2;SDS_P1;SDS_P2;PMS_P1;PMS_P2;Temp;Humidity;BMP_temperature;BMP_pressure;BME280_temperature;BME280_humidity;BME280_pressure;Samples;Min_cycle;Max_cycle;Signal;HPM_P1;HPM_P2
2023/01/06 00:01:43;;;;;;;;;;;;;;;9.20;55.37;94998.25;4172308;28;20331;-76
2023/01/06 00:03:50;;;;;;;;;;;;;;;9.09;56.54;95004.47;4168379;28;19920;-77
2023/01/06 00:05:55;;;;;;;;;;;;;;;9.15;56.25;95011.75;4169447;28;20284;-78
2023/01/06 00:07:58;;;;;;;;;;;;;;;8.86;57.03;95013.59;4173364;28;20041;-75
2023/01/06 00:09:59;;;;;;;;;;;;;;;8.77;57.65;95023.09;4157495;28;20031;-80
2023/01/06 00:12:02;;;;;;;;;;;;;;;8.60;58.16;95020.25;4173298;28;19920;-77
2023/01/06 00:14:04;;;;;;;;;;;;;;;8.45;58.75;95024.22;4166808;28;20296;-75
2023/01/06 00:16:10;;;;;;;;;;;;;;;8.63;58.14;95031.41;4154167;28;19951;-76
2023/01/06 00:18:12;;;;;;;;;;;;;;;8.55;58.52;95032.88;4178560;28;20428;-75
2023/01/06 00:20:14;;;;;;;;;;;;;;;8.51;57.91;95039.34;4178431;28;20386;-77
2023/01/06 00:22:16;;;;;;;;;;;;;;;8.34;59.08;95035.59;4178432;28;20457;-75
2023/01/06 00:24:17;;;;;;;;;;;;;;;8.20;59.62;95049.06;4179011;28;19924;-76
2023/01/06 00:26:19;;;;;;;;;;;;;;;8.21;59.45;95040.28;4178458;28;19924;-78
2023/01/06 00:28:21;;;;;;;;;;;;;;;8.25;59.47;95044.25;4177964;28;19920;-74
2023/01/06 00:30:22;;;;;;;;;;;;;;;8.15;60.07;95046.03;4177528;28;20058;-74
2023/01/06 00:32:24;;;;;;;;;;;;;;;8.16;60.27;95052.91;4176835;28;20001;-74
2023/01/06 00:34:26;;;;;;;;;;;;;;;8.12;60.52;95060.19;4176223;28;19924;-77
2023/01/06 00:36:27;;;;;;;;;;;;;;;8.14;60.75;95053.03;4160588;28;19933;-78
2023/01/06 00:38:29;;;;;;;;;;;;;;;8.32;59.66;95041.94;4177833;28;19924;-75
2023/01/06 00:40:31;;;;;;;;;;;;;;;8.58;59.77;95050.06;4173593;28;19920;-75
2023/01/06 00:42:33;;;;;;;;;;;;;;;8.80;58.73;95038.53;4175820;28;19996;-74
2023/01/06 00:44:35;;;;;;;;;;;;;;;8.99;58.62;95040.25;4171435;28;20295;-74
2023/01/06 00:46:37;;;;;;;;;;;;;;;9.12;58.22;95055.63;4151930;28;19951;-75
2023/01/06 00:48:38;;;;;;;;;;;;;;;9.24;58.49;95059.72;4167323;28;19975;-77
2023/01/06 00:50:47;;;;;;;;;;;;;;;9.38;57.77;95069.75;4176728;28;20455;-74
2023/01/06 00:52:49;;;;;;;;;;;;;;;9.34;58.14;95063.16;4167106;28;19994;-77
2023/01/06 00:54:50;;;;;;;;;;;;;;;9.40;57.91;95062.59;4178197;28;19921;-76
2023/01/06 00:56:53;;;;;;;;;;;;;;;9.51;57.61;95051.13;4177861;28;19921;-74
2023/01/06 00:58:54;;;;;;;;;;;;;;;9.58;57.38;95051.38;4160115;28;19921;-74
2023/01/06 01:00:56;;;;;;;;;;;;;;;9.59;57.80;95060.84;4171716;28;19924;-75
2023/01/06 01:02:57;;;;;;;;;;;;;;;9.56;58.43;95061.16;4166626;28;20234;-76
2023/01/06 01:04:59;;;;;;;;;;;;;;;9.49;58.10;95052.25;4166778;28;19980;-77
2023/01/06 01:07:01;;;;;;;;;;;;;;;9.47;58.58;95054.16;4171863;28;19947;-76
2023/01/06 01:09:03;;;;;;;;;;;;;;;9.61;58.42;95058.91;4159520;28;19991;-78
2023/01/06 01:11:08;;;;;;;;;;;;;;;9.58;58.56;95053.97;4178390;28;20027;-78
2023/01/06 01:13:09;;;;;;;;;;;;;;;9.56;58.19;95055.91;4152257;28;19925;-75
2023/01/06 01:15:11;;;;;;;;;;;;;;;9.57;58.91;95061.00;4175739;28;19921;-74
2023/01/06 01:17:14;;;;;;;;;;;;;;;9.53;58.53;95048.34;4178033;28;19932;-76
2023/01/06 01:19:16;;;;;;;;;;;;;;;9.51;59.19;95050.31;4169446;28;19932;-74
2023/01/06 01:21:17;;;;;;;;;;;;;;;9.43;59.53;95061.47;4172510;28;19925;-76
2023/01/06 01:23:19;;;;;;;;;;;;;;;9.38;59.10;95037.56;4159512;28;19960;-75
2023/01/06 01:25:20;;;;;;;;;;;;;;;9.35;59.32;95048.28;4165896;28;19971;-78
2023/01/06 01:27:22;;;;;;;;;;;;;;;9.35;59.62;95053.50;4178008;28;20411;-75
2023/01/06 01:29:24;;;;;;;;;;;;;;;9.41;59.57;95063.41;4177922;28;19937;-76
2023/01/06 01:31:26;;;;;;;;;;;;;;;9.42;58.98;95047.56;4164487;28;20063;-75
2023/01/06 01:33:28;;;;;;;;;;;;;;;9.42;59.22;95050.19;4172734;28;19929;-77
2023/01/06 01:35:29;;;;;;;;;;;;;;;9.41;59.50;95056.38;4169883;28;19928;-77
2023/01/06 01:37:31;;;;;;;;;;;;;;;9.48;59.35;95050.56;4177208;28;19921;-77
2023/01/06 01:39:33;;;;;;;;;;;;;;;9.47;58.61;95055.00;4163700;28;19925;-76
2023/01/06 01:41:34;;;;;;;;;;;;;;;9.49;58.91;95052.25;4177662;28;19924;-75
2023/01/06 01:43:46;;;;;;;;;;;;;;;9.46;59.29;95032.41;4150680;28;19995;-77
2023/01/06 01:45:49;;;;;;;;;;;;;;;9.46;59.09;95026.34;4174696;28;19928;-76
2023/01/06 01:47:55;;;;;;;;;;;;;;;9.47;58.76;95010.53;4176896;28;20283;-75
2023/01/06 01:49:59;;;;;;;;;;;;;;;9.46;58.60;94995.78;4159029;28;20019;-76
2023/01/06 01:52:00;;;;;;;;;;;;;;;9.53;58.62;94993.41;4176747;28;19943;-78
2023/01/06 01:54:03;;;;;;;;;;;;;;;9.54;58.58;94997.69;4175743;28;20474;-76
2023/01/06 01:56:06;;;;;;;;;;;;;;;9.51;58.96;94998.00;4158657;28;19921;-76
2023/01/06 01:58:18;;;;;;;;;;;;;;;9.50;58.91;95001.56;4176601;28;19927;-75
2023/01/06 02:00:20;;;;;;;;;;;;;;;9.49;58.54;94998.13;4157738;28;20292;-76
2023/01/06 02:02:21;;;;;;;;;;;;;;;9.55;58.05;94999.31;4172390;28;19975;-76
2023/01/06 02:04:24;;;;;;;;;;;;;;;9.47;58.32;94989.59;4176001;28;19921;-77
2023/01/06 02:06:25;;;;;;;;;;;;;;;9.52;58.08;94999.63;4141631;28;19927;-77
2023/01/06 02:08:30;;;;;;;;;;;;;;;9.50;58.02;95018.06;4172913;28;19921;-76
2023/01/06 02:10:32;;;;;;;;;;;;;;;9.51;58.38;95016.31;4158341;28;19921;-77
2023/01/06 02:12:34;;;;;;;;;;;;;;;9.50;57.87;95030.34;4175531;28;19929;-75
2023/01/06 02:14:35;;;;;;;;;;;;;;;9.51;58.53;95035.44;4176743;28;19921;-76
2023/01/06 02:16:56;;;;;;;;;;;;;;;9.51;58.17;95047.69;4176438;28;19927;-75
2023/01/06 02:19:18;;;;;;;;;;;;;;;9.51;57.66;95050.31;4158373;28;20011;-75
2023/01/06 02:21:20;;;;;;;;;;;;;;;9.56;57.50;95055.91;4171837;28;20210;-76
2023/01/06 02:23:35;;;;;;;;;;;;;;;9.56;57.48;95066.38;4175211;28;19920;-75
2023/01/06 02:25:55;;;;;;;;;;;;;;;9.62;57.48;95071.84;4169113;28;19924;-75
2023/01/06 02:28:06;;;;;;;;;;;;;;;9.55;57.19;95090.88;4175206;28;19925;-77
2023/01/06 02:30:26;;;;;;;;;;;;;;;9.54;57.50;95063.91;4176647;28;19920;-75
2023/01/06 02:32:31;;;;;;;;;;;;;;;9.53;57.25;95075.34;4163305;28;20402;-75
2023/01/06 02:34:40;;;;;;;;;;;;;;;9.46;57.18;95074.25;4161828;28;20000;-76
2023/01/06 02:36:43;;;;;;;;;;;;;;;9.49;57.60;95070.53;4159523;28;19966;-76
2023/01/06 02:39:11;;;;;;;;;;;;;;;9.40;58.02;95072.22;4174949;28;19921;-75
2023/01/06 02:41:19;;;;;;;;;;;;;;;9.45;57.29;95075.22;4173692;28;19928;-78
2023/01/06 02:43:28;;;;;;;;;;;;;;;9.38;57.93;95059.28;4176773;28;19937;-75
2023/01/06 02:45:49;;;;;;;;;;;;;;;9.39;58.07;95055.69;4159017;28;19924;-75
2023/01/06 02:47:56;;;;;;;;;;;;;;;9.31;58.01;95063.41;4163097;28;19928;-78
2023/01/06 02:49:58;;;;;;;;;;;;;;;9.35;57.83;95069.19;4176369;28;20256;-76
2023/01/06 02:52:01;;;;;;;;;;;;;;;9.32;58.19;95052.00;4169703;28;20391;-76
2023/01/06 02:54:12;;;;;;;;;;;;;;;9.28;57.71;95052.44;4176494;28;19924;-77
2023/01/06 02:56:13;;;;;;;;;;;;;;;9.38;57.41;95054.06;4179440;28;19924;-75
2023/01/06 02:58:24;;;;;;;;;;;;;;;9.38;57.36;95061.91;4157074;28;19921;-76
2023/01/06 03:00:36;;;;;;;;;;;;;;;9.40;57.13;95046.06;4173833;28;19920;-75
2023/01/06 03:02:40;;;;;;;;;;;;;;;9.32;57.52;95046.78;4152903;28;19925;-75
2023/01/06 03:04:42;;;;;;;;;;;;;;;9.35;57.22;95033.41;4159210;28;19952;-75
2023/01/06 03:06:44;;;;;;;;;;;;;;;9.38;57.33;95040.16;4153029;28;20016;-76
2023/01/06 03:08:46;;;;;;;;;;;;;;;9.34;57.35;95044.84;4171710;28;19921;-75
2023/01/06 03:10:48;;;;;;;;;;;;;;;9.32;56.74;95031.09;4165256;28;20063;-73
2023/01/06 03:13:11;;;;;;;;;;;;;;;9.29;56.83;95018.31;4161629;28;20360;-74
2023/01/06 03:15:12;;;;;;;;;;;;;;;9.19;57.42;95022.75;4179379;28;20057;-76
2023/01/06 03:17:14;;;;;;;;;;;;;;;9.23;57.31;95037.19;4179034;28;19927;-75
2023/01/06 03:19:15;;;;;;;;;;;;;;;9.26;56.74;95030.84;4144857;28;19936;-76
2023/01/06 03:21:19;;;;;;;;;;;;;;;9.18;57.08;95042.00;4156876;28;19921;-78
2023/01/06 03:23:20;;;;;;;;;;;;;;;9.23;57.22;95031.97;4164385;28;19925;-75
2023/01/06 03:25:22;;;;;;;;;;;;;;;9.27;57.03;95035.94;4162797;28;20374;-75
2023/01/06 03:27:24;;;;;;;;;;;;;;;9.26;56.86;95047.34;4162126;28;19979;-76
2023/01/06 03:29:25;;;;;;;;;;;;;;;9.21;56.50;95058.22;4174928;28;19932;-77
2023/01/06 03:31:39;;;;;;;;;;;;;;;9.23;57.09;95052.88;4167609;28;20325;-76
2023/01/06 03:33:50;;;;;;;;;;;;;;;9.33;56.58;95061.47;4177028;28;19924;-76
2023/01/06 03:35:55;;;;;;;;;;;;;;;9.25;56.43;95066.63;4170150;28;19994;-76
2023/01/06 03:38:15;;;;;;;;;;;;;;;9.20;57.45;95046.13;4152388;28;19921;-73
2023/01/06 03:40:22;;;;;;;;;;;;;;;9.18;56.80;95039.38;4166617;28;19921;-75
2023/01/06 03:45:18;;;;;;;;;;;;;;;9.11;57.06;95040.94;4164620;28;19972;-76
2023/01/06 03:47:24;;;;;;;;;;;;;;;9.12;57.31;95040.78;4172625;28;19924;-76
2023/01/06 03:49:30;;;;;;;;;;;;;;;9.05;56.70;95031.84;4154931;28;19963;-77
2023/01/06 03:51:31;;;;;;;;;;;;;;;9.06;57.86;95051.00;4147352;28;19965;-75
2023/01/06 03:53:33;;;;;;;;;;;;;;;9.02;57.42;95034.75;4162743;28;19921;-77
2023/01/06 03:55:34;;;;;;;;;;;;;;;9.03;57.40;95033.78;4162423;28;19925;-74
2023/01/06 03:57:37;;;;;;;;;;;;;;;9.05;56.81;95020.56;4145171;28;19988;-75
2023/01/06 03:59:42;;;;;;;;;;;;;;;9.00;57.71;95029.66;4163216;28;20388;-75
2023/01/06 04:01:44;;;;;;;;;;;;;;;9.02;57.81;95037.38;4150311;28;20005;-75
2023/01/06 04:03:46;;;;;;;;;;;;;;;8.98;57.35;95047.28;4154779;28;19967;-76
2023/01/06 04:05:47;;;;;;;;;;;;;;;9.01;56.73;95036.56;4142243;28;19921;-74
2023/01/06 04:07:49;;;;;;;;;;;;;;;8.99;57.19;95058.53;4147119;28;20045;-74
2023/01/06 04:09:51;;;;;;;;;;;;;;;8.96;56.67;95077.94;4176892;28;19929;-74
2023/01/06 04:14:13;;;;;;;;;;;;;;;8.94;56.48;95066.81;4163871;28;19987;-75
2023/01/06 04:16:14;;;;;;;;;;;;;;;8.97;57.20;95069.16;4170532;28;19920;-74
2023/01/06 04:18:16;;;;;;;;;;;;;;;8.98;57.07;95086.47;4159532;28;20202;-75
2023/01/06 04:20:24;;;;;;;;;;;;;;;8.97;57.35;95084.84;4177513;28;20113;-74
2023/01/06 04:22:26;;;;;;;;;;;;;;;8.93;56.84;95088.69;4171313;28;19987;-74
2023/01/06 04:24:28;;;;;;;;;;;;;;;8.96;56.67;95096.22;4172724;28;19921;-74
2023/01/06 04:26:29;;;;;;;;;;;;;;;8.97;56.95;95095.28;4160791;28;19921;-72
2023/01/06 04:28:31;;;;;;;;;;;;;;;9.08;56.73;95093.47;4178754;28;19955;-75
2023/01/06 04:30:33;;;;;;;;;;;;;;;8.99;56.59;95089.91;4179621;28;19920;-75
2023/01/06 04:32:34;;;;;;;;;;;;;;;8.84;57.39;95099.97;4182231;28;19936;-75
2023/01/06 04:34:36;;;;;;;;;;;;;;;8.80;56.88;95096.00;4178042;28;20422;-77
2023/01/06 04:36:38;;;;;;;;;;;;;;;8.75;57.64;95104.22;4179076;28;19924;-73
2023/01/06 04:38:39;;;;;;;;;;;;;;;8.83;56.56;95100.94;4178204;28;20462;-76
2023/01/06 04:40:41;;;;;;;;;;;;;;;8.79;57.28;95094.31;4178208;28;20003;-76
2023/01/06 04:45:03;;;;;;;;;;;;;;;8.74;57.63;95093.94;4164914;28;19932;-75
2023/01/06 04:47:05;;;;;;;;;;;;;;;8.74;57.41;95097.34;4174343;28;20273;-81
2023/01/06 04:49:07;;;;;;;;;;;;;;;8.74;57.20;95101.75;4168839;28;19927;-74
2023/01/06 04:51:09;;;;;;;;;;;;;;;8.75;56.81;95101.59;4167840;28;20339;-74
2023/01/06 04:53:11;;;;;;;;;;;;;;;8.75;56.95;95103.41;4163017;28;19921;-76
2023/01/06 04:55:12;;;;;;;;;;;;;;;8.81;56.76;95110.69;4173211;28;19928;-76
2023/01/06 04:57:14;;;;;;;;;;;;;;;8.90;56.84;95133.38;4167764;28;19921;-77
2023/01/06 04:59:16;;;;;;;;;;;;;;;8.84;56.35;95127.88;4160350;28;19925;-77
2023/01/06 05:01:17;;;;;;;;;;;;;;;8.89;57.22;95139.56;4165009;28;19920;-75
2023/01/06 05:03:19;;;;;;;;;;;;;;;8.89;55.99;95136.97;4177858;28;19921;-74
2023/01/06 05:05:21;;;;;;;;;;;;;;;8.80;56.85;95137.78;4163584;28;20261;-76
2023/01/06 05:07:22;;;;;;;;;;;;;;;8.80;56.67;95136.00;4173020;28;20447;-79
2023/01/06 05:09:24;;;;;;;;;;;;;;;8.84;57.31;95143.53;4161968;28;19979;-77
2023/01/06 05:11:26;;;;;;;;;;;;;;;8.84;56.92;95126.09;4167254;28;19980;-77
2023/01/06 05:13:28;;;;;;;;;;;;;;;8.89;56.34;95136.97;4177971;28;20056;-76
2023/01/06 05:15:29;;;;;;;;;;;;;;;8.82;57.43;95139.28;4177208;28;19975;-76
2023/01/06 05:17:31;;;;;;;;;;;;;;;8.82;56.39;95122.81;4177345;28;20022;-74
2023/01/06 05:19:32;;;;;;;;;;;;;;;8.77;56.79;95138.88;4167405;28;20003;-75
2023/01/06 05:21:34;;;;;;;;;;;;;;;8.72;56.96;95137.66;4161759;28;20285;-77
2023/01/06 05:23:36;;;;;;;;;;;;;;;8.72;57.00;95133.25;4174058;28;19937;-76
2023/01/06 05:25:38;;;;;;;;;;;;;;;8.70;57.56;95140.38;4161637;28;19975;-75
2023/01/06 05:27:39;;;;;;;;;;;;;;;8.78;57.11;95145.75;4161443;28;19921;-77
2023/01/06 05:29:41;;;;;;;;;;;;;;;8.83;57.29;95153.19;4170805;28;19929;-76
2023/01/06 05:31:42;;;;;;;;;;;;;;;8.79;57.28;95157.03;4165311;28;20072;-75
2023/01/06 05:33:44;;;;;;;;;;;;;;;8.79;57.48;95151.78;4174275;28;19929;-76
2023/01/06 05:35:46;;;;;;;;;;;;;;;8.82;57.18;95159.38;4161214;28;19921;-75
2023/01/06 05:37:47;;;;;;;;;;;;;;;8.81;57.19;95168.16;4152762;28;20353;-76
2023/01/06 05:39:49;;;;;;;;;;;;;;;8.81;57.08;95168.16;4161507;28;19929;-74
2023/01/06 05:41:50;;;;;;;;;;;;;;;8.79;56.93;95172.69;4161663;28;20221;-77
2023/01/06 05:43:52;;;;;;;;;;;;;;;8.78;56.90;95171.88;4176788;28;19933;-74
2023/01/06 05:45:54;;;;;;;;;;;;;;;8.69;57.10;95169.25;4170195;28;19928;-75
2023/01/06 05:47:56;;;;;;;;;;;;;;;8.68;56.29;95168.44;4171327;28;20004;-74
2023/01/06 05:49:58;;;;;;;;;;;;;;;8.68;56.80;95157.16;4145591;28;19983;-77
2023/01/06 05:51:59;;;;;;;;;;;;;;;8.69;57.05;95150.97;4176411;28;19974;-75
2023/01/06 05:54:05;;;;;;;;;;;;;;;8.63;56.41;95149.72;4177089;28;20321;-78
2023/01/06 05:56:08;;;;;;;;;;;;;;;8.59;56.79;95164.03;4158558;28;19932;-77
2023/01/06 05:58:10;;;;;;;;;;;;;;;8.55;55.89;95158.22;4175188;28;19921;-76
2023/01/06 06:00:11;;;;;;;;;;;;;;;8.50;56.55;95173.50;4176432;28;20425;-76
2023/01/06 06:02:13;;;;;;;;;;;;;;;8.58;56.10;95165.81;4177128;28;19928;-75
2023/01/06 06:04:15;;;;;;;;;;;;;;;8.61;56.15;95156.88;4176738;28;20374;-76
2023/01/06 06:06:16;;;;;;;;;;;;;;;8.60;55.74;95158.66;4171870;28;20078;-75
2023/01/06 06:08:18;;;;;;;;;;;;;;;8.55;56.03;95155.63;4168275;28;19939;-76
2023/01/06 06:10:20;;;;;;;;;;;;;;;8.61;55.79;95154.28;4176088;28;19921;-78
2023/01/06 06:12:22;;;;;;;;;;;;;;;8.58;55.80;95150.16;4175974;28;19924;-73
2023/01/06 06:14:25;;;;;;;;;;;;;;;8.70;54.93;95142.19;4176671;28;20292;-75
2023/01/06 06:16:27;;;;;;;;;;;;;;;8.75;55.26;95150.41;4171261;28;20252;-74
2023/01/06 06:18:28;;;;;;;;;;;;;;;8.69;55.01;95145.72;4174473;28;19921;-75
2023/01/06 06:20:30;;;;;;;;;;;;;;;8.73;54.92;95147.97;4176738;28;19920;-77
2023/01/06 06:22:32;;;;;;;;;;;;;;;8.84;54.93;95152.22;4176301;28;19952;-78
2023/01/06 06:24:33;;;;;;;;;;;;;;;8.94;54.36;95158.25;4176235;28;19927;-76
2023/01/06 06:26:35;;;;;;;;;;;;;;;9.21;54.19;95168.03;4176061;28;19986;-75
2023/01/06 06:28:37;;;;;;;;;;;;;;;9.80;51.81;95170.53;4176161;28;20321;-77
2023/01/06 06:30:39;;;;;;;;;;;;;;;9.94;51.34;95185.78;4171472;28;19940;-77
2023/01/06 06:32:40;;;;;;;;;;;;;;;9.82;51.07;95179.06;4158282;28;19921;-79
2023/01/06 06:34:42;;;;;;;;;;;;;;;9.82;51.65;95182.47;4166431;28;19932;-76
2023/01/06 06:36:43;;;;;;;;;;;;;;;9.80;51.43;95192.25;4174144;28;19947;-76
2023/01/06 06:38:46;;;;;;;;;;;;;;;9.77;51.04;95189.94;4163961;28;19932;-75
2023/01/06 06:40:47;;;;;;;;;;;;;;;10.17;50.54;95193.25;4173322;28;19967;-75
2023/01/06 06:42:52;;;;;;;;;;;;;;;10.64;49.48;95191.38;4174325;28;19920;-74
2023/01/06 06:44:53;;;;;;;;;;;;;;;10.96;48.67;95203.16;4174910;28;19929;-76
2023/01/06 06:46:55;;;;;;;;;;;;;;;11.00;48.59;95195.84;4163251;28;20107;-76
2023/01/06 06:48:56;;;;;;;;;;;;;;;10.77;48.70;95195.44;4158118;28;19925;-77
2023/01/06 06:51:03;;;;;;;;;;;;;;;10.41;49.45;95200.59;4174501;28;19927;-76
2023/01/06 06:53:05;;;;;;;;;;;;;;;10.34;49.67;95202.97;4176236;28;19929;-79
2023/01/06 06:55:06;;;;;;;;;;;;;;;10.31;49.89;95200.66;4154947;28;19973;-78
2023/01/06 06:57:08;;;;;;;;;;;;;;;10.08;50.55;95207.22;4166688;28;19925;-77
2023/01/06 06:59:10;;;;;;;;;;;;;;;9.94;50.68;95206.72;4172721;28;19998;-77
2023/01/06 07:01:12;;;;;;;;;;;;;;;10.01;50.77;95220.88;4175694;28;19970;-77
2023/01/06 07:03:14;;;;;;;;;;;;;;;9.97;51.05;95218.69;4154621;28;19951;-77
2023/01/06 07:05:16;;;;;;;;;;;;;;;9.95;51.02;95218.81;4164427;28;20191;-77
2023/01/06 07:07:18;;;;;;;;;;;;;;;9.98;50.96;95217.69;4165876;28;20292;-77
2023/01/06 07:09:19;;;;;;;;;;;;;;;9.91;51.05;95224.47;4174232;28;20002;-76
2023/01/06 07:11:21;;;;;;;;;;;;;;;9.72;51.71;95223.56;4167232;28;20026;-74
2023/01/06 07:13:23;;;;;;;;;;;;;;;9.82;51.25;95229.59;4166111;28;20208;-75
2023/01/06 07:15:24;;;;;;;;;;;;;;;9.87;51.15;95236.19;4168034;28;19951;-76
2023/01/06 07:17:26;;;;;;;;;;;;;;;9.92;50.61;95231.38;4166623;28;19925;-77
2023/01/06 07:19:28;;;;;;;;;;;;;;;9.84;50.79;95274.75;4159853;28;19921;-77
2023/01/06 07:21:29;;;;;;;;;;;;;;;9.79;50.66;95240.34;4172754;28;20002;-75
2023/01/06 07:23:31;;;;;;;;;;;;;;;9.73;51.51;95238.28;4175594;28;19921;-76
2023/01/06 07:25:33;;;;;;;;;;;;;;;9.75;51.09;95231.13;4176127;28;19921;-75
2023/01/06 07:27:35;;;;;;;;;;;;;;;9.75;51.35;95249.44;4174565;28;19920;-78
2023/01/06 07:29:36;;;;;;;;;;;;;;;9.71;51.52;95248.06;4166064;28;19947;-79
2023/01/06 07:31:38;;;;;;;;;;;;;;;9.70;51.01;95256.03;4173723;28;19927;-78
2023/01/06 07:33:39;;;;;;;;;;;;;;;9.76;51.43;95253.69;4172811;28;19928;-77
2023/01/06 07:35:41;;;;;;;;;;;;;;;9.79;51.37;95261.28;4178846;28;19943;-75
2023/01/06 07:37:43;;;;;;;;;;;;;;;9.91;51.09;95261.13;4173344;28;20283;-74
2023/01/06 07:39:47;;;;;;;;;;;;;;;9.82;51.15;95265.41;4185086;28;19931;-78
2023/01/06 07:41:49;;;;;;;;;;;;;;;9.92;51.09;95253.13;4192895;28;20291;-79
2023/01/06 07:43:50;;;;;;;;;;;;;;;9.91;50.90;95248.03;4180990;28;19947;-82
2023/01/06 07:45:53;;;;;;;;;;;;;;;9.96;51.04;95251.88;4165304;28;19925;-72
2023/01/06 07:47:55;;;;;;;;;;;;;;;9.96;51.02;95269.34;4162159;28;20450;-75
2023/01/06 07:49:56;;;;;;;;;;;;;;;9.90;51.07;95262.91;4162589;28;20449;-73
2023/01/06 07:51:58;;;;;;;;;;;;;;;9.96;51.10;95267.59;4180674;28;19925;-71
2023/01/06 07:54:00;;;;;;;;;;;;;;;10.02;50.92;95267.03;4183378;28;19925;-73
2023/01/06 07:56:02;;;;;;;;;;;;;;;10.15;50.24;95256.25;4177701;28;20333;-73
2023/01/06 07:58:07;;;;;;;;;;;;;;;10.09;50.78;95256.81;4143110;28;19948;-72
2023/01/06 08:00:08;;;;;;;;;;;;;;;10.09;50.81;95254.19;4176333;28;19928;-76
2023/01/06 08:02:10;;;;;;;;;;;;;;;10.18;50.53;95255.94;4166931;28;19925;-71
2023/01/06 08:04:12;;;;;;;;;;;;;;;10.07;50.55;95273.59;4177054;28;19947;-77
2023/01/06 08:06:14;;;;;;;;;;;;;;;9.97;51.13;95268.41;4176188;28;19929;-77
2023/01/06 08:08:16;;;;;;;;;;;;;;;9.99;51.65;95266.47;4174286;28;19925;-74
2023/01/06 08:10:17;;;;;;;;;;;;;;;10.00;51.44;95268.09;4161216;28;19936;-76
2023/01/06 08:12:19;;;;;;;;;;;;;;;9.88;51.35;95269.25;4174819;28;19925;-73
2023/01/06 08:14:24;;;;;;;;;;;;;;;9.92;51.29;95258.38;4176094;28;19940;-89
2023/01/06 08:16:25;;;;;;;;;;;;;;;9.79;51.46;95266.50;4170239;28;19960;-72
2023/01/06 08:18:27;;;;;;;;;;;;;;;9.76;51.04;95266.78;4180681;28;19946;-70
2023/01/06 08:20:29;;;;;;;;;;;;;;;9.72;51.30;95247.13;4180967;28;20279;-82
2023/01/06 08:22:30;;;;;;;;;;;;;;;9.83;51.31;95246.94;4182941;28;20031;-71
2023/01/06 08:24:32;;;;;;;;;;;;;;;9.75;50.78;95264.31;4182328;28;20364;-74
2023/01/06 08:26:33;;;;;;;;;;;;;;;9.60;51.29;95277.00;4180233;28;19924;-86
2023/01/06 08:28:35;;;;;;;;;;;;;;;9.62;51.26;95285.53;4162898;28;19920;-81
2023/01/06 08:30:38;;;;;;;;;;;;;;;9.48;52.12;95276.31;4179570;28;19924;-75
2023/01/06 08:32:40;;;;;;;;;;;;;;;9.45;51.65;95284.44;4182566;28;19978;-72
2023/01/06 08:34:42;;;;;;;;;;;;;;;9.55;51.64;95271.34;4140875;28;20095;-74
2023/01/06 08:36:44;;;;;;;;;;;;;;;9.46;51.74;95277.41;4177522;28;19974;-74
2023/01/06 08:38:46;;;;;;;;;;;;;;;9.56;52.13;95286.09;4161412;28;19923;-72
2023/01/06 08:40:50;;;;;;;;;;;;;;;9.67;51.13;95285.94;4171647;28;19921;-72
2023/01/06 08:42:52;;;;;;;;;;;;;;;9.61;51.47;95291.72;4165674;28;19940;-77
2023/01/06 08:44:54;;;;;;;;;;;;;;;9.61;50.87;95273.41;4157519;28;19984;-73
2023/01/06 08:46:55;;;;;;;;;;;;;;;9.57;50.99;95283.34;4180827;28;19947;-81
2023/01/06 08:48:57;;;;;;;;;;;;;;;9.69;50.95;95286.63;4159470;28;20458;-73
2023/01/06 08:51:07;;;;;;;;;;;;;;;9.73;50.89;95280.16;4173260;28;19929;-75
2023/01/06 08:53:08;;;;;;;;;;;;;;;9.69;51.32;95280.56;4156037;28;19944;-74
2023/01/06 08:55:10;;;;;;;;;;;;;;;9.81;51.00;95277.66;4177407;28;20280;-76
2023/01/06 08:57:14;;;;;;;;;;;;;;;10.05;50.07;95279.81;4182690;28;19925;-75
2023/01/06 08:59:16;;;;;;;;;;;;;;;9.94;49.26;95284.41;4175885;28;19925;-75
2023/01/06 09:01:18;;;;;;;;;;;;;;;9.83;49.33;95275.75;4183351;28;20416;-75
2023/01/06 09:03:21;;;;;;;;;;;;;;;9.70;50.38;95285.69;4162549;28;19932;-75
2023/01/06 09:05:22;;;;;;;;;;;;;;;9.79;50.45;95287.44;4171850;28;19925;-74
2023/01/06 09:07:24;;;;;;;;;;;;;;;10.08;49.17;95291.78;4158168;28;19929;-74
2023/01/06 09:09:26;;;;;;;;;;;;;;;10.08;49.27;95272.66;4158075;28;19929;-76
2023/01/06 09:11:27;;;;;;;;;;;;;;;10.23;48.87;95268.59;4162541;28;20368;-73
2023/01/06 09:13:29;;;;;;;;;;;;;;;10.28;48.48;95250.66;4179079;28;19924;-75
2023/01/06 09:15:30;;;;;;;;;;;;;;;10.41;47.86;95248.59;4182025;28;19921;-73
2023/01/06 09:17:32;;;;;;;;;;;;;;;10.23;48.34;95258.94;4179703;28;20024;-72
2023/01/06 09:19:34;;;;;;;;;;;;;;;10.29;48.07;95269.84;4180241;28;19928;-73
2023/01/06 09:21:36;;;;;;;;;;;;;;;10.29;48.58;95280.31;4180851;28;20319;-74
2023/01/06 09:23:37;;;;;;;;;;;;;;;10.16;48.38;95251.81;4160276;28;20015;-71
2023/01/06 09:25:39;;;;;;;;;;;;;;;10.18;48.06;95263.81;4152333;28;19970;-71
2023/01/06 09:27:41;;;;;;;;;;;;;;;10.37;48.49;95265.56;4169802;28;20281;-73
2023/01/06 09:29:42;;;;;;;;;;;;;;;10.45;47.94;95268.28;4174679;28;19931;-80
2023/01/06 09:31:44;;;;;;;;;;;;;;;10.65;47.67;95271.66;4156664;28;19925;-71
2023/01/06 09:33:45;;;;;;;;;;;;;;;10.65;47.72;95269.03;4150495;28;19966;-74
2023/01/06 09:35:47;;;;;;;;;;;;;;;10.92;46.88;95263.91;4176718;28;19977;-72
2023/01/06 09:37:49;;;;;;;;;;;;;;;10.91;46.99;95257.03;4147418;28;20431;-73
2023/01/06 09:39:50;;;;;;;;;;;;;;;10.88;46.89;95260.75;4165038;28;19928;-71
2023/01/06 09:41:52;;;;;;;;;;;;;;;11.05;46.69;95238.16;4173807;28;19932;-72
2023/01/06 09:44:12;;;;;;;;;;;;;;;11.24;46.36;95239.81;4164960;28;19981;-74
2023/01/06 09:46:15;;;;;;;;;;;;;;;11.28;46.14;95235.94;4178596;28;19931;-72
2023/01/06 09:48:18;;;;;;;;;;;;;;;11.46;45.44;95235.91;4145629;28;19984;-70
2023/01/06 09:50:28;;;;;;;;;;;;;;;11.71;45.54;95244.00;4161043;28;19928;-71
2023/01/06 09:52:38;;;;;;;;;;;;;;;11.68;45.06;95237.25;4167204;28;19928;-73
2023/01/06 09:55:07;;;;;;;;;;;;;;;11.53;45.22;95225.63;4176044;28;19990;-71
2023/01/06 09:57:14;;;;;;;;;;;;;;;11.47;45.29;95227.91;4159429;28;20005;-73
2023/01/06 09:59:19;;;;;;;;;;;;;;;11.57;44.88;95235.69;4161610;28;20042;-74
2023/01/06 10:01:22;;;;;;;;;;;;;;;11.51;45.28;95249.41;4156059;28;19925;-71
2023/01/06 10:03:24;;;;;;;;;;;;;;;11.48;44.71;95228.72;4142880;28;19922;-70
2023/01/06 10:05:27;;;;;;;;;;;;;;;11.62;44.72;95233.44;4159112;28;19924;-86
2023/01/06 10:07:32;;;;;;;;;;;;;;;11.33;44.73;95236.28;4180249;28;19924;-75
2023/01/06 10:09:52;;;;;;;;;;;;;;;11.44;44.50;95225.59;4163496;28;19922;-72
2023/01/06 10:12:06;;;;;;;;;;;;;;;11.43;44.45;95221.31;4177510;28;20382;-72
2023/01/06 10:14:16;;;;;;;;;;;;;;;11.59;44.63;95214.53;4175997;28;19924;-72
2023/01/06 10:16:21;;;;;;;;;;;;;;;11.70;44.60;95222.16;4176604;28;19928;-73
2023/01/06 10:18:26;;;;;;;;;;;;;;;11.18;45.46;95222.06;4155532;28;19921;-73
2023/01/06 10:20:46;;;;;;;;;;;;;;;10.89;45.92;95196.06;4176078;28;19920;-69
2023/01/06 10:22:51;;;;;;;;;;;;;;;10.88;46.32;95226.69;4175880;28;20019;-72
2023/01/06 10:24:54;;;;;;;;;;;;;;;10.85;46.28;95208.63;4162585;28;20420;-70
2023/01/06 10:26:57;;;;;;;;;;;;;;;11.06;45.73;95206.56;4157818;28;20375;-71
2023/01/06 10:29:14;;;;;;;;;;;;;;;11.16;45.32;95203.03;4175200;28;19924;-71
2023/01/06 10:31:16;;;;;;;;;;;;;;;10.99;45.37;95208.13;4158304;28;19925;-71
2023/01/06 10:33:18;;;;;;;;;;;;;;;10.28;46.93;95219.25;4175393;28;20015;-71
2023/01/06 10:35:20;;;;;;;;;;;;;;;10.44;46.86;95216.03;4173848;28;20067;-71
2023/01/06 10:37:22;;;;;;;;;;;;;;;10.50;46.56;95210.22;4175910;28;20260;-72
2023/01/06 10:39:24;;;;;;;;;;;;;;;10.45;46.74;95205.44;4140815;28;20088;-72
2023/01/06 10:41:26;;;;;;;;;;;;;;;10.20;47.11;95212.13;4158139;28;19925;-71
2023/01/06 10:43:28;;;;;;;;;;;;;;;9.92;48.46;95207.81;4172645;28;19925;-73
2023/01/06 10:45:39;;;;;;;;;;;;;;;10.16;47.96;95200.28;4176408;28;19933;-72
2023/01/06 10:47:41;;;;;;;;;;;;;;;10.39;47.68;95199.91;4157621;28;20327;-71
2023/01/06 10:49:43;;;;;;;;;;;;;;;10.42;46.94;95195.22;4155885;28;20050;-74
2023/01/06 10:51:50;;;;;;;;;;;;;;;10.40;46.90;95178.00;4153224;28;19968;-73
2023/01/06 10:53:52;;;;;;;;;;;;;;;10.34;47.03;95181.22;4156901;28;20436;-72
2023/01/06 10:55:54;;;;;;;;;;;;;;;10.36;47.01;95179.28;4157159;28;19990;-73
2023/01/06 10:57:56;;;;;;;;;;;;;;;10.45;46.46;95160.06;4175924;28;19987;-72